createdAt,value
2023-05-11T00:00:01.680Z,37.44948216070951
2023-05-11T00:15:01.322Z,39.2397412803261
2023-05-11T00:30:01.952Z,42.34065795821467
2023-05-11T00:45:01.571Z,41.978728645655956
2023-05-11T01:00:01.214Z,42.06941476349593
2023-05-11T01:15:01.870Z,41.83437454986523
2023-05-11T01:30:01.580Z,41.794260157818826
2023-05-11T01:45:01.186Z,42.11477327722552
2023-05-11T02:00:01.791Z,41.68508132204869
2023-05-11T02:15:01.403Z,42.068595018027466
2023-05-11T02:30:01.083Z,41.987805431699016
2023-05-11T02:45:01.725Z,41.82719380062704
2023-05-11T03:00:01.332Z,41.86154478138753
2023-05-11T03:15:02.246Z,41.47297861104318
2023-05-11T03:30:01.961Z,41.32956474630903
2023-05-11T03:45:01.599Z,41.51886574586996
2023-05-11T04:00:02.263Z,41.62212347791717
2023-05-11T04:15:01.882Z,41.278213779648034
2023-05-11T04:30:01.586Z,41.53636376405584
2023-05-11T04:45:02.225Z,42.22344858730954
2023-05-11T05:00:01.835Z,42.79344147635862
2023-05-11T05:15:01.729Z,43.390855970486555
2023-05-11T05:30:02.469Z,45.50179744838528
2023-05-11T05:45:02.087Z,48.68668524547379
2023-05-11T06:00:01.735Z,50.70444070760812
2023-05-11T06:15:02.449Z,53.364521927252326
2023-05-11T06:30:02.118Z,53.116017918883884
2023-05-11T06:45:01.795Z,52.44218181748391
2023-05-11T07:00:02.482Z,51.76623444529945
2023-05-11T07:15:02.161Z,49.76992328028194
2023-05-11T07:30:01.823Z,48.61346467003255
2023-05-11T07:45:02.472Z,48.0225999651695
2023-05-11T08:00:02.251Z,48.808842024911705
2023-05-11T08:15:01.898Z,48.40194230560374
2023-05-11T08:30:01.643Z,46.32546711796058
2023-05-11T08:45:02.291Z,45.59564184370058
2023-05-11T09:00:01.928Z,46.13532735363611
2023-05-11T09:15:02.247Z,46.650274302401534
2023-05-11T09:30:02.301Z,44.40273142956915
2023-05-11T09:45:01.993Z,42.601042462909156
2023-05-11T10:00:01.758Z,41.96025717077344
2023-05-11T10:15:02.417Z,43.59068766936097
2023-05-11T10:30:02.112Z,44.67802398363208
2023-05-11T10:45:01.756Z,43.30517811728653
2023-05-11T11:00:01.387Z,42.20225123172159
2023-05-11T11:15:02.033Z,40.26566990725219
2023-05-11T11:30:01.719Z,37.72640677228634
2023-05-11T11:45:01.390Z,38.31022521435875
2023-05-11T12:00:02.058Z,40.0786964894271
2023-05-11T12:15:01.686Z,40.387516788540395
2023-05-11T12:30:01.347Z,39.450656017152184
2023-05-11T12:45:01.979Z,38.342102558898105
2023-05-11T13:00:01.597Z,35.39130071304418
2023-05-11T13:15:02.270Z,37.62387543163678
2023-05-11T13:30:01.907Z,34.45849748116957
2023-05-11T13:45:01.583Z,37.4586593474215
2023-05-11T14:00:02.235Z,38.642806394460784
2023-05-11T14:15:01.859Z,38.006323674319596
2023-05-11T14:30:01.485Z,39.37337130005453
2023-05-11T14:45:02.119Z,41.160126860326855
2023-05-11T15:00:01.720Z,40.71876496926878
2023-05-11T15:15:01.338Z,41.81414798650127
2023-05-11T15:30:01.990Z,41.28105960372504
2023-05-11T15:45:01.595Z,41.367728933672375
2023-05-11T16:00:01.448Z,42.517605392503974
2023-05-11T16:15:02.144Z,44.70231829933807
2023-05-11T16:30:08.509Z,44.59648689519036
2023-05-11T16:45:01.852Z,44.37736290267635
2023-05-11T17:00:01.467Z,44.364954264191574
2023-05-11T17:15:02.107Z,45.39967372712997
2023-05-11T17:30:01.750Z,45.23211712432644
2023-05-11T17:45:01.377Z,45.373857536023685
2023-05-11T18:00:01.989Z,46.199371121682596
2023-05-11T18:15:01.635Z,46.02052413398564
2023-05-11T18:30:01.329Z,46.383319844364266
2023-05-11T18:45:01.953Z,46.755479525089754
2023-05-11T19:00:01.605Z,46.59380493912673
2023-05-11T19:15:01.227Z,46.934049894892006
2023-05-11T19:30:01.863Z,46.78563955647169
2023-05-11T19:45:01.494Z,47.53001539415514
2023-05-11T20:00:01.116Z,47.49453235885334
2023-05-11T20:15:01.760Z,47.26767584544144
2023-05-11T20:30:01.423Z,46.98439331377635
2023-05-11T20:45:01.040Z,47.269334627077114
2023-05-11T21:00:04.957Z,47.348749152566896
2023-05-11T21:15:02.197Z,46.82279847504532
2023-05-11T21:30:02.021Z,46.53969388505888
2023-05-11T21:45:01.708Z,46.204928824281794
2023-05-11T22:00:01.503Z,46.00081697463014
2023-05-11T22:15:02.203Z,46.25828147757879
2023-05-11T22:30:02.020Z,46.377854086551665
2023-05-11T22:45:01.812Z,45.80823042630423
2023-05-11T23:00:01.510Z,46.24156918258082
2023-05-11T23:15:02.477Z,45.52270348340005
2023-05-11T23:30:02.289Z,45.438811409815536
2023-05-11T23:45:02.004Z,45.13676231018854
